createdAt,value
2023-08-19T00:01:30.529Z,13.43
2023-08-19T00:04:03.049Z,14.30
2023-08-19T00:06:40.708Z,13.88
2023-08-19T00:09:13.239Z,14.30
2023-08-19T00:11:45.862Z,14.50
2023-08-19T00:14:19.431Z,14.60
2023-08-19T00:16:51.899Z,14.57
2023-08-19T00:19:24.412Z,13.38
2023-08-19T00:21:56.886Z,14.30
2023-08-19T00:24:29.343Z,13.60
2023-08-19T00:27:03.041Z,13.75
2023-08-19T00:29:35.765Z,14.82
2023-08-19T00:32:08.325Z,14.88
2023-08-19T00:34:40.857Z,14.30
2023-08-19T00:37:13.299Z,14.40
2023-08-19T00:39:45.729Z,14.95
2023-08-19T00:42:18.206Z,14.57
2023-08-19T00:44:50.725Z,14.23
2023-08-19T00:47:24.367Z,13.73
2023-08-19T00:49:57.263Z,13.55
2023-08-19T00:52:29.730Z,12.93
2023-08-19T00:55:03.403Z,14.13
2023-08-19T00:57:38.080Z,13.13
2023-08-19T01:00:11.138Z,13.38
2023-08-19T01:02:43.767Z,13.25
2023-08-19T01:05:16.355Z,14.13
2023-08-19T01:08:01.099Z,13.70
2023-08-19T01:10:39.682Z,13.30
2023-08-19T01:13:14.327Z,14.77
2023-08-19T01:15:55.024Z,13.48
2023-08-19T01:18:28.050Z,11.93
2023-08-19T01:21:02.526Z,12.48
2023-08-19T01:23:39.213Z,12.25
2023-08-19T01:26:12.014Z,12.23
2023-08-19T01:28:44.557Z,12.07
2023-08-19T01:31:16.997Z,12.32
2023-08-19T01:33:49.693Z,12.65
2023-08-19T01:36:35.956Z,11.95
2023-08-19T01:39:10.079Z,12.50
2023-08-19T01:41:43.061Z,11.57
2023-08-19T01:44:16.109Z,11.40
2023-08-19T01:46:48.643Z,11.05
2023-08-19T01:49:23.319Z,10.98
2023-08-19T01:54:28.678Z,10.38
2023-08-19T01:57:01.086Z,10.25
2023-08-19T01:59:34.341Z,9.85
2023-08-19T02:02:06.788Z,10.02
2023-08-19T02:04:39.336Z,10.27
2023-08-19T02:07:11.869Z,9.48
2023-08-19T02:09:46.759Z,9.00
2023-08-19T02:12:19.202Z,10.40
2023-08-19T02:14:51.720Z,9.20
2023-08-19T02:17:24.370Z,8.38
2023-08-19T02:19:56.839Z,9.43
2023-08-19T02:22:29.362Z,9.35
2023-08-19T02:25:02.122Z,8.07
2023-08-19T02:27:34.962Z,8.85
2023-08-19T02:30:08.228Z,9.20
2023-08-19T02:32:41.947Z,8.73
2023-08-19T02:35:14.933Z,8.50
2023-08-19T02:37:47.448Z,8.55
2023-08-19T02:40:19.881Z,9.02
2023-08-19T02:42:52.331Z,8.07
2023-08-19T02:45:25.663Z,8.90
2023-08-19T02:47:58.178Z,7.97
2023-08-19T02:50:30.681Z,8.70
2023-08-19T02:53:03.246Z,9.02
2023-08-19T02:55:40.846Z,9.80
2023-08-19T02:58:14.647Z,7.85
2023-08-19T03:00:50.175Z,8.23
2023-08-19T03:03:22.829Z,8.07
2023-08-19T03:06:00.197Z,8.45
2023-08-19T03:08:32.651Z,8.32
2023-08-19T03:11:05.830Z,7.75
2023-08-19T03:13:38.315Z,7.95
2023-08-19T03:16:10.793Z,8.27
2023-08-19T03:18:43.367Z,7.82
2023-08-19T03:21:15.841Z,7.72
2023-08-19T03:23:48.354Z,7.10
2023-08-19T03:26:20.910Z,7.60
2023-08-19T03:28:53.391Z,8.15
2023-08-19T03:31:26.327Z,7.80
2023-08-19T03:33:58.948Z,8.15
2023-08-19T03:36:31.472Z,7.38
2023-08-19T03:39:04.224Z,7.50
2023-08-19T03:41:36.835Z,7.43
2023-08-19T03:44:09.278Z,8.20
2023-08-19T03:46:43.012Z,7.85
2023-08-19T03:49:15.473Z,7.07
2023-08-19T03:51:47.950Z,7.13
2023-08-19T03:54:20.760Z,7.10
2023-08-19T03:56:53.418Z,7.82
2023-08-19T03:59:26.117Z,7.18
2023-08-19T04:01:58.554Z,7.30
2023-08-19T04:04:31.040Z,7.35
2023-08-19T04:07:03.762Z,7.10
2023-08-19T04:09:36.239Z,7.22
2023-08-19T04:12:08.967Z,6.88
2023-08-19T04:14:41.371Z,6.93
2023-08-19T04:17:13.822Z,6.53
2023-08-19T04:19:46.768Z,6.50
2023-08-19T04:22:19.830Z,6.63
2023-08-19T04:24:53.402Z,6.70
2023-08-19T04:27:25.960Z,6.38
2023-08-19T04:29:58.621Z,6.82
2023-08-19T04:32:31.834Z,6.10
2023-08-19T04:35:05.725Z,6.22
2023-08-19T04:37:38.195Z,6.30
2023-08-19T04:40:11.186Z,5.80
2023-08-19T04:42:43.702Z,5.97
2023-08-19T04:45:17.355Z,5.97
2023-08-19T04:47:50.677Z,6.05
2023-08-19T04:50:23.315Z,5.70
2023-08-19T04:52:55.822Z,5.97
2023-08-19T04:55:28.430Z,6.53
2023-08-19T04:58:00.889Z,5.57
2023-08-19T05:00:33.355Z,6.32
2023-08-19T05:03:05.764Z,6.03
2023-08-19T05:05:38.264Z,5.45
2023-08-19T05:08:10.716Z,5.45
2023-08-19T05:10:43.196Z,5.65
2023-08-19T05:13:15.623Z,5.47
2023-08-19T05:15:48.145Z,5.07
2023-08-19T05:18:20.641Z,5.85
2023-08-19T05:20:53.074Z,5.20
2023-08-19T05:23:25.547Z,5.93
2023-08-19T05:25:57.978Z,5.00
2023-08-19T05:28:30.486Z,5.32
2023-08-19T05:31:02.944Z,5.65
2023-08-19T05:33:35.388Z,5.05
2023-08-19T05:36:07.802Z,4.82
2023-08-19T05:38:40.299Z,5.03
2023-08-19T05:41:13.159Z,5.60
2023-08-19T05:43:46.086Z,5.20
2023-08-19T05:46:18.623Z,4.95
2023-08-19T05:48:51.191Z,4.80
2023-08-19T05:51:23.718Z,4.68
2023-08-19T05:54:02.383Z,5.00
2023-08-19T05:56:35.183Z,4.82
2023-08-19T05:59:07.622Z,5.15
2023-08-19T06:01:40.176Z,4.72
2023-08-19T06:04:12.900Z,5.05
2023-08-19T06:06:45.312Z,5.22
2023-08-19T06:09:17.824Z,4.60
2023-08-19T06:11:52.757Z,5.00
2023-08-19T06:14:25.352Z,4.55
2023-08-19T06:16:57.800Z,4.70
2023-08-19T06:19:30.266Z,5.13
2023-08-19T06:22:02.875Z,4.85
2023-08-19T06:24:35.325Z,4.72
2023-08-19T06:27:07.848Z,4.75
2023-08-19T06:29:41.165Z,5.03
2023-08-19T06:32:14.032Z,4.50
2023-08-19T06:34:46.843Z,4.68
2023-08-19T06:37:28.911Z,4.93
2023-08-19T06:40:10.608Z,4.80
2023-08-19T06:42:43.205Z,5.22
2023-08-19T06:45:17.916Z,4.65
2023-08-19T06:47:54.113Z,5.10
2023-08-19T06:50:28.518Z,5.82
2023-08-19T06:53:01.398Z,4.60
2023-08-19T06:55:34.609Z,4.82
2023-08-19T06:58:16.691Z,4.60
2023-08-19T07:00:53.061Z,4.85
2023-08-19T07:03:28.630Z,5.10
2023-08-19T07:06:02.385Z,4.43
2023-08-19T07:08:40.077Z,4.97
2023-08-19T07:11:12.936Z,5.10
2023-08-19T07:13:45.784Z,5.00
2023-08-19T07:16:22.024Z,4.72
2023-08-19T07:18:58.531Z,5.13
2023-08-19T07:21:34.006Z,4.55
2023-08-19T07:24:07.203Z,5.10
2023-08-19T07:26:40.278Z,5.05
2023-08-19T07:29:13.021Z,4.38
2023-08-19T07:31:48.322Z,5.35
2023-08-19T07:34:20.854Z,5.47
2023-08-19T07:36:53.332Z,4.60
2023-08-19T07:39:26.540Z,4.55
2023-08-19T07:41:59.046Z,4.30
2023-08-19T07:44:31.503Z,4.60
2023-08-19T07:47:04.159Z,4.43
2023-08-19T07:49:36.649Z,4.68
2023-08-19T07:52:09.288Z,5.07
2023-08-19T07:54:42.017Z,4.53
2023-08-19T07:57:14.519Z,4.15
2023-08-19T07:59:47.003Z,5.10
2023-08-19T08:02:19.499Z,4.50
2023-08-19T08:04:52.172Z,4.40
2023-08-19T08:07:24.989Z,4.68
2023-08-19T08:09:57.491Z,3.97
2023-08-19T08:12:31.492Z,3.90
2023-08-19T08:15:05.017Z,4.15
2023-08-19T08:17:37.486Z,4.25
2023-08-19T08:20:10.256Z,4.10
2023-08-19T08:22:42.716Z,3.92
2023-08-19T08:25:15.246Z,4.13
2023-08-19T08:27:47.735Z,3.80
2023-08-19T08:30:20.414Z,4.18
2023-08-19T08:32:53.039Z,4.20
2023-08-19T08:35:25.604Z,4.10
2023-08-19T08:37:58.189Z,4.20
2023-08-19T08:40:33.487Z,4.35
2023-08-19T08:43:07.130Z,4.97
2023-08-19T08:45:40.357Z,4.32
2023-08-19T08:48:15.038Z,4.85
2023-08-19T08:50:48.872Z,4.80
2023-08-19T08:53:21.827Z,4.00
2023-08-19T08:55:55.876Z,4.22
2023-08-19T08:58:28.515Z,4.85
2023-08-19T09:01:03.664Z,4.45
2023-08-19T09:03:40.605Z,4.28
2023-08-19T09:06:18.641Z,4.18
2023-08-19T09:09:03.316Z,4.70
2023-08-19T09:11:39.592Z,4.60
2023-08-19T09:14:35.968Z,4.53
2023-08-19T09:17:08.944Z,4.40
2023-08-19T09:19:41.986Z,5.40
2023-08-19T09:22:17.246Z,4.75
2023-08-19T09:24:50.342Z,5.20
2023-08-19T09:27:32.945Z,4.93
2023-08-19T09:30:06.192Z,5.15
2023-08-19T09:32:40.401Z,5.00
2023-08-19T09:35:13.476Z,5.75
2023-08-19T09:37:46.064Z,5.68
2023-08-19T09:40:22.438Z,5.65
2023-08-19T09:42:58.036Z,5.38
2023-08-19T09:45:30.601Z,6.47
2023-08-19T09:48:07.493Z,5.93
2023-08-19T09:50:46.351Z,6.85
2023-08-19T09:53:19.319Z,5.70
2023-08-19T09:55:51.788Z,6.28
2023-08-19T09:58:26.239Z,6.35
2023-08-19T10:00:58.777Z,7.18
2023-08-19T10:03:31.542Z,6.50
2023-08-19T10:06:05.489Z,6.28
2023-08-19T10:08:42.778Z,5.70
2023-08-19T10:11:17.489Z,6.07
2023-08-19T10:13:53.574Z,5.45
2023-08-19T10:16:26.873Z,5.80
2023-08-19T10:19:01.625Z,6.03
2023-08-19T10:21:36.330Z,5.88
2023-08-19T10:24:09.535Z,5.85
2023-08-19T10:26:42.025Z,5.80
2023-08-19T10:29:15.157Z,7.25
2023-08-19T10:31:47.765Z,6.72
2023-08-19T10:34:20.217Z,6.57
2023-08-19T10:37:09.615Z,6.13
2023-08-19T10:39:47.837Z,6.15
2023-08-19T10:42:27.132Z,5.18
2023-08-19T10:44:59.683Z,6.07
2023-08-19T10:47:32.328Z,5.30
2023-08-19T10:50:08.382Z,5.60
2023-08-19T10:52:58.427Z,6.00
2023-08-19T10:55:53.002Z,5.75
2023-08-19T10:58:26.237Z,5.93
2023-08-19T11:00:58.872Z,6.18
2023-08-19T11:03:31.850Z,6.97
2023-08-19T11:06:07.087Z,7.60
2023-08-19T11:08:43.874Z,8.35
2023-08-19T11:11:17.531Z,7.28
2023-08-19T11:13:50.084Z,7.32
2023-08-19T11:16:28.173Z,7.95
2023-08-19T11:19:02.856Z,7.43
2023-08-19T11:21:41.615Z,8.10
2023-08-19T11:24:14.878Z,7.30
2023-08-19T11:26:49.642Z,6.35
2023-08-19T11:29:22.169Z,7.10
2023-08-19T11:31:54.866Z,7.75
2023-08-19T11:34:31.513Z,7.78
2023-08-19T11:37:05.428Z,7.32
2023-08-19T11:39:38.122Z,6.85
2023-08-19T11:42:10.865Z,6.88
2023-08-19T11:44:44.373Z,6.45
2023-08-19T11:47:16.942Z,6.55
2023-08-19T11:49:49.612Z,5.30
2023-08-19T11:52:22.303Z,5.97
2023-08-19T11:55:02.573Z,4.95
2023-08-19T11:57:36.503Z,4.10
2023-08-19T12:00:16.489Z,4.38
2023-08-19T12:02:49.035Z,4.55
2023-08-19T12:05:27.181Z,5.03
2023-08-19T12:07:59.660Z,4.30
2023-08-19T12:10:41.708Z,4.80
2023-08-19T12:13:21.227Z,5.10
2023-08-19T12:15:54.933Z,4.78
2023-08-19T12:18:31.605Z,4.93
2023-08-19T12:21:04.483Z,5.32
2023-08-19T12:23:36.942Z,4.70
2023-08-19T12:26:09.617Z,6.38
2023-08-19T12:28:42.229Z,5.03
2023-08-19T12:31:14.749Z,6.03
2023-08-19T12:33:47.247Z,6.57
2023-08-19T12:36:20.177Z,5.85
2023-08-19T12:38:52.741Z,5.88
2023-08-19T12:41:25.278Z,6.43
2023-08-19T12:43:57.745Z,7.57
2023-08-19T12:46:33.431Z,7.65
2023-08-19T12:49:05.901Z,7.55
2023-08-19T12:51:38.556Z,8.15
2023-08-19T12:54:11.037Z,7.70
2023-08-19T12:56:43.472Z,7.85
2023-08-19T12:59:15.947Z,8.27
2023-08-19T13:01:48.423Z,8.25
2023-08-19T13:04:21.148Z,9.10
2023-08-19T13:06:53.662Z,8.20
2023-08-19T13:09:26.101Z,6.72
2023-08-19T13:11:58.559Z,8.18
2023-08-19T13:14:30.992Z,7.50
2023-08-19T13:17:03.483Z,7.60
2023-08-19T13:19:36.017Z,7.03
2023-08-19T13:22:08.773Z,8.57
2023-08-19T13:24:41.231Z,7.20
2023-08-19T13:27:13.847Z,7.25
2023-08-19T13:29:49.593Z,6.70
2023-08-19T13:32:22.118Z,7.15
2023-08-19T13:34:54.541Z,5.47
2023-08-19T13:37:27.025Z,7.07
2023-08-19T13:39:59.937Z,5.38
2023-08-19T13:42:33.181Z,5.32
2023-08-19T13:45:08.284Z,4.68
2023-08-19T13:47:40.868Z,4.85
2023-08-19T13:50:13.470Z,4.85
2023-08-19T13:52:48.405Z,4.75
2023-08-19T13:55:21.137Z,3.90
2023-08-19T13:57:54.713Z,3.63
2023-08-19T14:00:27.380Z,3.63
2023-08-19T14:03:00.006Z,3.67
2023-08-19T14:05:32.623Z,4.05
2023-08-19T14:08:05.281Z,3.85
2023-08-19T14:10:39.255Z,3.80
2023-08-19T14:13:12.083Z,3.30
2023-08-19T14:15:45.407Z,2.88
2023-08-19T14:18:17.904Z,2.63
2023-08-19T14:20:50.650Z,2.95
2023-08-19T14:23:23.191Z,2.58
2023-08-19T14:25:55.789Z,2.30
2023-08-19T14:28:28.271Z,2.50
2023-08-19T14:31:00.742Z,2.63
2023-08-19T14:33:35.243Z,2.90
2023-08-19T14:36:07.694Z,2.60
2023-08-19T14:38:40.147Z,3.58
2023-08-19T14:41:14.208Z,2.55
2023-08-19T14:43:46.666Z,2.72
2023-08-19T14:46:21.387Z,2.30
2023-08-19T14:48:54.649Z,2.03
2023-08-19T14:51:27.428Z,2.45
2023-08-19T14:53:59.882Z,2.15
2023-08-19T14:56:32.411Z,2.00
2023-08-19T14:59:05.058Z,2.00
2023-08-19T15:01:37.592Z,2.92
2023-08-19T15:04:10.490Z,2.95
2023-08-19T15:06:43.067Z,2.65
2023-08-19T15:09:15.641Z,2.63
2023-08-19T15:11:48.149Z,1.63
2023-08-19T15:14:20.622Z,2.70
2023-08-19T15:16:55.115Z,2.42
2023-08-19T15:19:27.672Z,2.80
2023-08-19T15:22:00.183Z,2.50
2023-08-19T15:24:32.695Z,3.13
2023-08-19T15:27:05.194Z,2.63
2023-08-19T15:29:37.945Z,2.80
2023-08-19T15:32:12.197Z,2.58
2023-08-19T15:34:44.882Z,2.47
2023-08-19T15:37:18.286Z,2.28
2023-08-19T15:39:50.831Z,2.97
2023-08-19T15:42:23.393Z,2.47
2023-08-19T15:44:55.821Z,2.60
2023-08-19T15:47:28.419Z,2.65
2023-08-19T15:50:00.866Z,2.75
2023-08-19T15:52:33.359Z,2.80
2023-08-19T15:55:06.091Z,3.00
2023-08-19T15:57:38.666Z,3.13
2023-08-19T16:00:15.496Z,3.53
2023-08-19T16:02:48.143Z,3.00
2023-08-19T16:05:20.722Z,3.10
2023-08-19T16:07:53.188Z,3.13
2023-08-19T16:10:25.803Z,2.80
2023-08-19T16:12:58.276Z,2.72
2023-08-19T16:15:30.844Z,2.72
2023-08-19T16:18:03.568Z,2.75
2023-08-19T16:20:36.027Z,3.17
2023-08-19T16:23:08.491Z,2.80
2023-08-19T16:25:43.040Z,2.50
2023-08-19T16:28:15.569Z,2.70
2023-08-19T16:30:48.032Z,2.40
2023-08-19T16:33:20.516Z,2.38
2023-08-19T16:35:56.248Z,3.10
2023-08-19T16:38:28.903Z,3.50
2023-08-19T16:41:01.927Z,3.60
2023-08-19T16:43:34.975Z,3.20
2023-08-19T16:46:07.403Z,3.03
2023-08-19T16:48:39.963Z,3.83
2023-08-19T16:51:12.462Z,3.47
2023-08-19T16:53:45.449Z,2.90
2023-08-19T16:56:17.900Z,3.88
2023-08-19T16:58:50.459Z,3.50
2023-08-19T17:01:22.947Z,3.38
2023-08-19T17:03:55.414Z,3.65
2023-08-19T17:06:27.891Z,3.47
2023-08-19T17:09:01.386Z,3.22
2023-08-19T17:11:33.860Z,3.42
2023-08-19T17:14:06.347Z,3.40
2023-08-19T17:16:41.052Z,4.60
2023-08-19T17:19:13.960Z,3.30
2023-08-19T17:21:46.571Z,3.33
2023-08-19T17:24:19.020Z,3.72
2023-08-19T17:26:51.654Z,3.65
2023-08-19T17:29:24.065Z,3.63
2023-08-19T17:31:56.572Z,4.00
2023-08-19T17:34:29.018Z,3.53
2023-08-19T17:37:01.512Z,4.13
2023-08-19T17:39:34.029Z,3.80
2023-08-19T17:42:06.662Z,3.78
2023-08-19T17:44:44.357Z,3.67
2023-08-19T17:47:16.869Z,3.35
2023-08-19T17:49:49.443Z,3.60
2023-08-19T17:52:21.928Z,3.97
2023-08-19T17:54:54.390Z,3.83
2023-08-19T17:57:26.918Z,3.90
2023-08-19T17:59:59.361Z,3.53
2023-08-19T18:02:32.095Z,3.72
2023-08-19T18:05:05.081Z,4.30
2023-08-19T18:07:37.881Z,4.05
2023-08-19T18:10:10.809Z,7.80
2023-08-19T18:12:43.264Z,3.03
2023-08-19T18:15:15.766Z,3.63
2023-08-19T18:17:48.325Z,2.90
2023-08-19T18:20:21.498Z,2.83
2023-08-19T18:22:53.979Z,3.72
2023-08-19T18:25:26.580Z,3.30
2023-08-19T18:27:59.151Z,2.63
2023-08-19T18:30:31.641Z,3.50
2023-08-19T18:33:04.194Z,3.92
2023-08-19T18:35:36.655Z,3.33
2023-08-19T18:38:09.129Z,3.40
2023-08-19T18:40:41.642Z,3.50
2023-08-19T18:43:14.212Z,3.58
2023-08-19T18:45:47.535Z,3.67
2023-08-19T18:48:20.148Z,3.58
2023-08-19T18:50:52.713Z,3.10
2023-08-19T18:53:25.194Z,3.65
2023-08-19T18:55:57.694Z,3.20
2023-08-19T18:58:30.181Z,3.28
2023-08-19T19:01:08.525Z,4.63
2023-08-19T19:03:41.431Z,3.13
2023-08-19T19:06:14.485Z,3.70
2023-08-19T19:08:46.996Z,3.47
2023-08-19T19:11:19.532Z,3.10
2023-08-19T19:13:52.069Z,2.63
2023-08-19T19:16:24.594Z,3.20
2023-08-19T19:18:57.584Z,4.15
2023-08-19T19:21:31.338Z,2.90
2023-08-19T19:24:03.994Z,3.20
2023-08-19T19:26:36.477Z,3.35
2023-08-19T19:29:08.956Z,4.05
2023-08-19T19:31:41.440Z,3.33
2023-08-19T19:34:14.766Z,3.58
2023-08-19T19:36:47.272Z,3.90
2023-08-19T19:39:19.866Z,3.50
2023-08-19T19:41:52.321Z,4.00
2023-08-19T19:44:24.845Z,4.32
2023-08-19T19:46:57.413Z,3.83
2023-08-19T19:49:30.041Z,3.95
2023-08-19T19:52:02.496Z,5.05
2023-08-19T19:54:36.258Z,4.22
2023-08-19T19:57:09.188Z,5.30
2023-08-19T19:59:41.676Z,4.43
2023-08-19T20:02:14.582Z,4.03
2023-08-19T20:04:47.117Z,4.18
2023-08-19T20:07:19.618Z,5.32
2023-08-19T20:09:52.072Z,4.90
2023-08-19T20:12:24.585Z,5.90
2023-08-19T20:14:57.844Z,4.55
2023-08-19T20:17:30.286Z,5.18
2023-08-19T20:20:02.904Z,4.85
2023-08-19T20:22:35.384Z,6.28
2023-08-19T20:25:07.979Z,5.20
2023-08-19T20:27:40.479Z,5.05
2023-08-19T20:30:13.212Z,4.35
2023-08-19T20:32:47.969Z,4.80
2023-08-19T20:35:20.767Z,4.70
2023-08-19T20:37:53.316Z,4.90
2023-08-19T20:40:25.870Z,5.10
2023-08-19T20:42:58.326Z,5.68
2023-08-19T20:45:30.857Z,4.80
2023-08-19T20:48:03.906Z,5.53
2023-08-19T20:50:37.166Z,5.20
2023-08-19T20:53:09.824Z,5.07
2023-08-19T20:55:42.243Z,4.82
2023-08-19T20:58:14.739Z,5.60
2023-08-19T21:00:47.267Z,5.72
2023-08-19T21:03:19.678Z,6.05
2023-08-19T21:05:52.402Z,5.00
2023-08-19T21:08:24.987Z,5.25
2023-08-19T21:10:59.176Z,5.38
2023-08-19T21:13:31.587Z,4.65
2023-08-19T21:16:04.271Z,5.68
2023-08-19T21:18:36.849Z,4.30
2023-08-19T21:21:09.308Z,4.43
2023-08-19T21:23:41.887Z,4.18
2023-08-19T21:26:14.330Z,3.20
2023-08-19T21:28:46.770Z,3.30
2023-08-19T21:31:19.293Z,3.30
2023-08-19T21:33:53.437Z,3.20
2023-08-19T21:36:27.004Z,3.63
2023-08-19T21:38:59.426Z,2.67
2023-08-19T21:41:31.863Z,2.72
2023-08-19T21:44:04.690Z,2.70
2023-08-19T21:46:37.108Z,2.20
2023-08-19T21:49:10.247Z,2.50
2023-08-19T21:51:42.719Z,2.65
2023-08-19T21:54:15.216Z,2.83
2023-08-19T21:56:47.715Z,2.10
2023-08-19T21:59:20.256Z,1.90
2023-08-19T22:01:52.739Z,2.15
2023-08-19T22:04:25.217Z,1.70
2023-08-19T22:06:59.003Z,1.50
2023-08-19T22:09:34.313Z,2.90
2023-08-19T22:14:40.211Z,1.77
2023-08-19T22:17:12.631Z,1.70
2023-08-19T22:19:45.389Z,1.80
2023-08-19T22:22:17.920Z,1.80
2023-08-19T22:24:50.393Z,1.30
2023-08-19T22:27:22.977Z,1.48
2023-08-19T22:29:55.448Z,1.50
2023-08-19T22:32:27.896Z,1.70
2023-08-19T22:35:00.757Z,1.55
2023-08-19T22:37:35.075Z,1.73
2023-08-19T22:40:08.393Z,1.60
2023-08-19T22:42:41.066Z,1.45
2023-08-19T22:45:15.000Z,1.80
2023-08-19T22:47:47.433Z,1.50
2023-08-19T22:50:19.868Z,1.55
2023-08-19T22:52:52.357Z,1.30
2023-08-19T22:55:24.873Z,1.65
2023-08-19T22:57:57.416Z,1.48
2023-08-19T23:00:29.918Z,1.88
2023-08-19T23:03:02.569Z,1.70
2023-08-19T23:05:35.323Z,1.58
2023-08-19T23:08:07.774Z,2.20
2023-08-19T23:10:43.394Z,2.40
2023-08-19T23:13:15.883Z,2.05
2023-08-19T23:15:48.359Z,1.70
2023-08-19T23:18:20.831Z,2.55
2023-08-19T23:20:53.321Z,2.53
2023-08-19T23:23:25.828Z,2.00
2023-08-19T23:25:58.243Z,2.03
2023-08-19T23:28:30.762Z,2.58
2023-08-19T23:31:03.563Z,1.85
2023-08-19T23:33:36.073Z,2.08
2023-08-19T23:36:08.658Z,1.90
2023-08-19T23:38:43.509Z,2.13
2023-08-19T23:41:16.096Z,2.03
2023-08-19T23:43:49.229Z,1.67
2023-08-19T23:46:22.116Z,1.83
2023-08-19T23:48:54.970Z,1.85
2023-08-19T23:51:32.470Z,1.90
2023-08-19T23:54:05.876Z,1.48
2023-08-19T23:56:38.659Z,1.60
2023-08-19T23:59:11.462Z,1.70
